Time;durP1;ratioP1;P1;durP2;ratioP2;P2;SDS_P1;SDS_P2;PMS_P1;PMS_P2;Temp;Humidity;BMP_temperature;BMP_pressure;BME280_temperature;BME280_humidity;BME280_pressure;Samples;Min_cycle;Max_cycle;Signal;HPM_P1;HPM_P2
2021/09/29 00:18:32;;;;;;;4.75;3.85;;;;;;;;;;4314348;28;20213;-64
2021/09/29 00:20:58;;;;;;;5.25;3.65;;;;;;;;;;4151311;34;20590;-61
2021/09/29 00:23:24;;;;;;;8.77;3.20;;;;;;;;;;4151354;34;20218;-62
2021/09/29 00:25:50;;;;;;;4.85;3.55;;;;;;;;;;4151134;34;20122;-61
2021/09/29 00:28:16;;;;;;;5.60;3.47;;;;;;;;;;4151422;34;20564;-69
2021/09/29 00:30:51;;;;;;;6.32;3.62;;;;;;;;;;4151411;34;20119;-67
2021/09/29 00:33:18;;;;;;;10.43;3.75;;;;;;;;;;4149958;34;20103;-71
2021/09/29 00:35:44;;;;;;;5.43;3.92;;;;;;;;;;4149828;34;20091;-72
2021/09/29 00:38:10;;;;;;;6.75;3.90;;;;;;;;;;4151466;34;20125;-62
2021/09/29 00:40:36;;;;;;;4.87;3.87;;;;;;;;;;4151159;34;20119;-68
2021/09/29 00:43:02;;;;;;;8.13;4.22;;;;;;;;;;4151095;34;20133;-68
2021/09/29 00:45:27;;;;;;;4.87;3.75;;;;;;;;;;4149814;34;20115;-63
2021/09/29 00:47:54;;;;;;;5.95;4.22;;;;;;;;;;4149897;34;20158;-61
2021/09/29 00:50:20;;;;;;;5.85;4.03;;;;;;;;;;4151162;34;20130;-68
2021/09/29 00:52:45;;;;;;;8.75;4.00;;;;;;;;;;4151214;34;20179;-72
2021/09/29 00:55:12;;;;;;;3.87;3.47;;;;;;;;;;4138610;34;20539;-68
2021/09/29 00:57:38;;;;;;;5.37;3.60;;;;;;;;;;4149607;34;20658;-71
2021/09/29 01:00:05;;;;;;;8.27;3.42;;;;;;;;;;4151087;34;20123;-71
2021/09/29 01:02:31;;;;;;;5.65;5.07;;;;;;;;;;4151172;34;20095;-68
2021/09/29 01:04:57;;;;;;;5.32;3.90;;;;;;;;;;4149586;34;20268;-63
2021/09/29 01:07:25;;;;;;;5.93;4.07;;;;;;;;;;4150931;34;20122;-61
2021/09/29 01:10:14;;;;;;;5.68;4.62;;;;;;;;;;4149753;34;20119;-68
2021/09/29 01:12:46;;;;;;;5.00;4.35;;;;;;;;;;4149447;34;20104;-61
2021/09/29 01:15:29;;;;;;;6.10;4.32;;;;;;;;;;4151118;34;20174;-61
2021/09/29 01:17:58;;;;;;;4.53;3.97;;;;;;;;;;4149300;34;20138;-64
2021/09/29 01:20:34;;;;;;;5.47;4.03;;;;;;;;;;4150953;34;20119;-63
2021/09/29 01:23:09;;;;;;;7.20;4.50;;;;;;;;;;4149385;34;20537;-62
2021/09/29 01:25:56;;;;;;;5.35;4.47;;;;;;;;;;4150825;34;20106;-72
2021/09/29 01:28:38;;;;;;;6.10;4.10;;;;;;;;;;4150717;34;20111;-63
2021/09/29 01:31:04;;;;;;;6.75;4.68;;;;;;;;;;4150316;34;20640;-63
2021/09/29 01:33:30;;;;;;;6.40;4.43;;;;;;;;;;4138029;34;20130;-63
2021/09/29 01:35:56;;;;;;;5.80;4.30;;;;;;;;;;4149660;34;20471;-69
2021/09/29 01:38:23;;;;;;;9.48;4.97;;;;;;;;;;4149246;34;20142;-69
2021/09/29 01:40:49;;;;;;;5.22;4.72;;;;;;;;;;4138511;34;20219;-68
2021/09/29 01:43:15;;;;;;;8.35;4.97;;;;;;;;;;4138262;34;20162;-71
2021/09/29 01:45:44;;;;;;;5.80;4.30;;;;;;;;;;4150608;34;20118;-72
2021/09/29 01:48:10;;;;;;;4.60;4.15;;;;;;;;;;4150586;34;20101;-71
2021/09/29 01:50:36;;;;;;;6.05;3.97;;;;;;;;;;4149192;34;20527;-71
2021/09/29 01:53:02;;;;;;;6.40;4.37;;;;;;;;;;4137921;34;20131;-72
2021/09/29 01:55:29;;;;;;;4.70;4.25;;;;;;;;;;4137979;34;20104;-69
2021/09/29 01:57:55;;;;;;;4.93;4.35;;;;;;;;;;4150670;34;20121;-68
2021/09/29 02:00:23;;;;;;;5.65;3.37;;;;;;;;;;4149318;34;20106;-64
2021/09/29 02:02:49;;;;;;;5.45;3.97;;;;;;;;;;4138193;34;20106;-64
2021/09/29 02:05:25;;;;;;;5.50;4.05;;;;;;;;;;4150449;34;20138;-64
2021/09/29 02:07:50;;;;;;;4.40;3.85;;;;;;;;;;4138990;34;20122;-70
2021/09/29 02:10:16;;;;;;;6.18;4.12;;;;;;;;;;4138040;34;20130;-73
2021/09/29 02:12:42;;;;;;;5.07;3.80;;;;;;;;;;4150300;34;20292;-73
2021/09/29 02:15:09;;;;;;;4.25;3.85;;;;;;;;;;4149257;34;20233;-74
2021/09/29 02:17:35;;;;;;;4.65;3.80;;;;;;;;;;4148932;34;20565;-75
2021/09/29 02:20:01;;;;;;;4.55;3.60;;;;;;;;;;4150775;34;20117;-71
2021/09/29 02:22:27;;;;;;;5.50;4.35;;;;;;;;;;4139286;34;20123;-72
2021/09/29 02:24:53;;;;;;;3.97;3.55;;;;;;;;;;4138307;34;20569;-72
2021/09/29 02:27:18;;;;;;;5.62;3.95;;;;;;;;;;4149103;34;20526;-67
2021/09/29 02:29:44;;;;;;;5.03;3.83;;;;;;;;;;4150201;34;20102;-64
2021/09/29 02:32:10;;;;;;;5.62;3.90;;;;;;;;;;4150123;34;20134;-71
2021/09/29 02:34:37;;;;;;;6.10;3.62;;;;;;;;;;4148961;34;20099;-70
2021/09/29 02:37:03;;;;;;;5.40;3.95;;;;;;;;;;4148700;34;20181;-70
2021/09/29 02:39:30;;;;;;;4.40;3.83;;;;;;;;;;4150479;34;20135;-64
2021/09/29 02:41:56;;;;;;;8.35;3.72;;;;;;;;;;4150592;34;20464;-70
2021/09/29 02:44:22;;;;;;;6.07;3.85;;;;;;;;;;4149403;34;20143;-69
2021/09/29 02:46:47;;;;;;;4.20;3.80;;;;;;;;;;4150040;34;20127;-67
2021/09/29 02:49:13;;;;;;;5.57;4.22;;;;;;;;;;4149006;34;20146;-66
2021/09/29 02:51:39;;;;;;;6.40;4.30;;;;;;;;;;4150064;34;20099;-72
2021/09/29 02:54:06;;;;;;;6.95;3.83;;;;;;;;;;4148849;34;20201;-72
2021/09/29 02:56:32;;;;;;;6.00;3.75;;;;;;;;;;4149666;34;20211;-65
2021/09/29 02:58:58;;;;;;;9.32;4.25;;;;;;;;;;4148669;34;20134;-70
2021/09/29 03:01:24;;;;;;;7.95;4.07;;;;;;;;;;4137485;34;20138;-70
2021/09/29 03:03:50;;;;;;;5.50;4.00;;;;;;;;;;4150010;34;20122;-69
2021/09/29 03:06:16;;;;;;;7.75;3.92;;;;;;;;;;4149943;34;20118;-62
2021/09/29 03:08:42;;;;;;;7.57;4.43;;;;;;;;;;4150133;34;20524;-60
2021/09/29 03:11:09;;;;;;;7.28;3.92;;;;;;;;;;4148511;34;20213;-62
2021/09/29 03:13:34;;;;;;;5.95;4.32;;;;;;;;;;4148361;34;20115;-67
2021/09/29 03:16:00;;;;;;;7.87;4.50;;;;;;;;;;4147233;34;20110;-68
2021/09/29 03:18:26;;;;;;;6.75;4.12;;;;;;;;;;4135756;34;20119;-62
2021/09/29 03:20:52;;;;;;;9.57;4.20;;;;;;;;;;4148545;34;20135;-63
2021/09/29 03:23:18;;;;;;;7.00;4.78;;;;;;;;;;4147446;34;20107;-67
2021/09/29 03:25:44;;;;;;;8.85;4.37;;;;;;;;;;4149309;34;20115;-65
2021/09/29 03:28:11;;;;;;;6.12;4.25;;;;;;;;;;4148575;34;20126;-71
2021/09/29 03:30:36;;;;;;;10.80;4.47;;;;;;;;;;4148333;34;20126;-65
2021/09/29 03:33:06;;;;;;;10.15;4.80;;;;;;;;;;4149762;34;20130;-63
2021/09/29 03:35:34;;;;;;;6.28;4.40;;;;;;;;;;4149951;34;20107;-66
2021/09/29 03:38:00;;;;;;;6.53;4.65;;;;;;;;;;4150007;34;20450;-67
2021/09/29 03:40:26;;;;;;;8.18;4.50;;;;;;;;;;4148335;34;20203;-71
2021/09/29 03:42:52;;;;;;;7.32;4.00;;;;;;;;;;4149753;34;20203;-65
2021/09/29 03:45:18;;;;;;;5.95;3.90;;;;;;;;;;4149604;34;20533;-71
2021/09/29 03:47:44;;;;;;;8.57;4.00;;;;;;;;;;4148157;34;20639;-66
2021/09/29 03:50:11;;;;;;;6.80;3.80;;;;;;;;;;4148074;34;20130;-67
2021/09/29 03:52:37;;;;;;;8.20;3.90;;;;;;;;;;4149421;34;20103;-71
2021/09/29 03:55:04;;;;;;;12.40;4.20;;;;;;;;;;4137967;34;20150;-70
2021/09/29 03:57:29;;;;;;;6.87;3.90;;;;;;;;;;4150336;34;20114;-67
2021/09/29 03:59:55;;;;;;;8.85;4.03;;;;;;;;;;4151536;34;20122;-66
2021/09/29 04:02:21;;;;;;;9.52;3.95;;;;;;;;;;4150240;34;20111;-65
2021/09/29 04:04:47;;;;;;;5.37;4.18;;;;;;;;;;4151761;34;20543;-66
2021/09/29 04:07:13;;;;;;;8.38;4.45;;;;;;;;;;4150112;34;20215;-66
2021/09/29 04:09:39;;;;;;;8.98;4.45;;;;;;;;;;4151506;34;20131;-70
2021/09/29 04:12:05;;;;;;;6.15;4.12;;;;;;;;;;4151374;34;20134;-71
2021/09/29 04:14:32;;;;;;;7.95;4.12;;;;;;;;;;4151683;34;20493;-70
2021/09/29 04:16:58;;;;;;;5.15;4.50;;;;;;;;;;4151158;34;20206;-71
2021/09/29 04:19:24;;;;;;;7.53;4.30;;;;;;;;;;4151263;34;20181;-67
2021/09/29 04:21:50;;;;;;;6.60;3.67;;;;;;;;;;4149830;34;20131;-66
2021/09/29 04:24:16;;;;;;;11.25;4.47;;;;;;;;;;4149916;34;20154;-70
2021/09/29 04:26:42;;;;;;;9.27;5.07;;;;;;;;;;4151311;34;20139;-71
2021/09/29 04:29:08;;;;;;;13.77;5.47;;;;;;;;;;4150138;34;20521;-67
2021/09/29 04:31:34;;;;;;;6.80;4.90;;;;;;;;;;4138609;34;20119;-71
2021/09/29 04:34:00;;;;;;;6.60;5.00;;;;;;;;;;4150036;34;20103;-70
2021/09/29 04:36:26;;;;;;;10.88;4.80;;;;;;;;;;4149752;34;20094;-69
2021/09/29 04:38:52;;;;;;;6.32;4.70;;;;;;;;;;4150059;34;20112;-71
2021/09/29 04:41:18;;;;;;;7.57;4.12;;;;;;;;;;4151221;34;20649;-66
2021/09/29 04:43:44;;;;;;;5.50;4.43;;;;;;;;;;4151020;34;20130;-71
2021/09/29 04:46:09;;;;;;;6.78;4.65;;;;;;;;;;4151372;34;20451;-70
2021/09/29 04:48:35;;;;;;;5.80;3.83;;;;;;;;;;4149616;34;20233;-70
2021/09/29 04:51:01;;;;;;;5.28;3.78;;;;;;;;;;4151080;34;20179;-70
2021/09/29 04:53:27;;;;;;;5.05;3.40;;;;;;;;;;4149592;34;20118;-71
2021/09/29 04:55:53;;;;;;;8.65;4.78;;;;;;;;;;4149634;34;20141;-66
2021/09/29 04:58:19;;;;;;;4.43;3.78;;;;;;;;;;4149805;34;20119;-70
2021/09/29 05:00:45;;;;;;;5.78;3.53;;;;;;;;;;4150991;34;20117;-70
2021/09/29 05:03:11;;;;;;;5.12;3.70;;;;;;;;;;4149786;34;20144;-69
2021/09/29 05:05:37;;;;;;;4.60;3.70;;;;;;;;;;4149493;34;20115;-68
2021/09/29 05:08:05;;;;;;;4.97;3.47;;;;;;;;;;4149096;34;20499;-67
2021/09/29 05:10:45;;;;;;;5.15;3.92;;;;;;;;;;4151065;34;20119;-67
2021/09/29 05:13:12;;;;;;;12.07;4.28;;;;;;;;;;4150866;34;20247;-64
2021/09/29 05:15:39;;;;;;;3.95;3.47;;;;;;;;;;4149324;34;20555;-66
2021/09/29 05:18:05;;;;;;;7.55;3.75;;;;;;;;;;4150655;34;20123;-67
2021/09/29 05:20:31;;;;;;;10.65;3.95;;;;;;;;;;4150614;34;20567;-67
2021/09/29 05:22:57;;;;;;;5.85;3.47;;;;;;;;;;4150777;34;20115;-67
2021/09/29 05:25:23;;;;;;;6.95;3.55;;;;;;;;;;4149188;34;20555;-67
2021/09/29 05:27:49;;;;;;;3.90;3.17;;;;;;;;;;4150523;34;20104;-68
2021/09/29 05:30:15;;;;;;;5.57;3.25;;;;;;;;;;4138330;34;20145;-68
2021/09/29 05:32:41;;;;;;;5.40;3.87;;;;;;;;;;4150612;34;20122;-68
2021/09/29 05:35:07;;;;;;;4.80;3.22;;;;;;;;;;4150866;34;20606;-68
2021/09/29 05:37:33;;;;;;;4.20;3.08;;;;;;;;;;4150503;34;20225;-68
2021/09/29 05:39:59;;;;;;;4.05;3.10;;;;;;;;;;4150858;34;20199;-64
2021/09/29 05:42:25;;;;;;;4.85;3.53;;;;;;;;;;4149111;34;20125;-64
2021/09/29 05:44:51;;;;;;;3.42;3.05;;;;;;;;;;4150596;34;20133;-64
2021/09/29 05:47:17;;;;;;;10.95;3.47;;;;;;;;;;4150423;34;20153;-64
2021/09/29 05:49:43;;;;;;;4.90;3.20;;;;;;;;;;4150615;34;20119;-67
2021/09/29 05:52:09;;;;;;;5.80;3.35;;;;;;;;;;4150454;34;20468;-68
2021/09/29 05:54:35;;;;;;;4.57;3.45;;;;;;;;;;4150371;34;20135;-67
2021/09/29 05:57:00;;;;;;;5.15;3.30;;;;;;;;;;4137828;34;20107;-67
2021/09/29 05:59:26;;;;;;;5.12;3.40;;;;;;;;;;4150494;34;20122;-67
2021/09/29 06:01:53;;;;;;;5.75;3.53;;;;;;;;;;4150147;34;20125;-68
2021/09/29 06:04:19;;;;;;;4.80;3.25;;;;;;;;;;4150708;34;20147;-69
2021/09/29 06:06:44;;;;;;;6.00;3.50;;;;;;;;;;4148993;34;20130;-68
2021/09/29 06:09:10;;;;;;;6.45;3.60;;;;;;;;;;4150273;34;20187;-67
2021/09/29 06:11:36;;;;;;;5.22;3.12;;;;;;;;;;4150347;34;20487;-68
2021/09/29 06:14:04;;;;;;;3.78;3.30;;;;;;;;;;4148795;34;20106;-67
2021/09/29 06:16:31;;;;;;;4.72;3.85;;;;;;;;;;4150341;34;20111;-62
2021/09/29 06:18:57;;;;;;;8.88;3.55;;;;;;;;;;4148597;34;20119;-62
2021/09/29 06:21:23;;;;;;;5.20;3.40;;;;;;;;;;4137634;34;20178;-62
2021/09/29 06:23:49;;;;;;;6.43;3.17;;;;;;;;;;4149122;34;20191;-66
2021/09/29 06:26:15;;;;;;;5.07;3.22;;;;;;;;;;4150431;34;20096;-66
2021/09/29 06:28:41;;;;;;;4.35;3.58;;;;;;;;;;4150366;34;20107;-61
2021/09/29 06:31:07;;;;;;;7.32;3.62;;;;;;;;;;4149987;34;20135;-61
2021/09/29 06:33:33;;;;;;;3.17;2.80;;;;;;;;;;4148697;34;20099;-61
2021/09/29 06:36:00;;;;;;;5.68;3.10;;;;;;;;;;4148833;34;20142;-61
2021/09/29 06:38:26;;;;;;;3.28;2.97;;;;;;;;;;4150105;34;20135;-61
2021/09/29 06:40:52;;;;;;;4.10;2.95;;;;;;;;;;4150184;34;20735;-67
2021/09/29 06:43:18;;;;;;;3.42;3.00;;;;;;;;;;4150007;34;20533;-66
2021/09/29 06:45:44;;;;;;;5.00;3.10;;;;;;;;;;4150163;34;20130;-67
2021/09/29 06:48:10;;;;;;;3.67;2.50;;;;;;;;;;4150346;34;20223;-62
2021/09/29 06:50:36;;;;;;;3.00;2.30;;;;;;;;;;4148824;34;20201;-62
2021/09/29 06:53:03;;;;;;;5.60;2.40;;;;;;;;;;4137741;34;20287;-66
2021/09/29 06:55:29;;;;;;;3.40;2.67;;;;;;;;;;4150095;34;20537;-61
2021/09/29 06:57:55;;;;;;;9.05;2.70;;;;;;;;;;4150062;34;20686;-67
2021/09/29 07:00:22;;;;;;;3.65;2.55;;;;;;;;;;4148728;34;20459;-61
2021/09/29 07:02:48;;;;;;;3.83;2.47;;;;;;;;;;4149928;34;20130;-66
2021/09/29 07:05:15;;;;;;;2.95;2.10;;;;;;;;;;4150074;34;20125;-66
2021/09/29 07:07:41;;;;;;;4.03;2.42;;;;;;;;;;4148535;34;20127;-66
2021/09/29 07:10:08;;;;;;;3.00;2.30;;;;;;;;;;4149988;34;20138;-65
2021/09/29 07:12:38;;;;;;;3.95;2.53;;;;;;;;;;4150128;34;20470;-61
2021/09/29 07:15:04;;;;;;;3.03;2.10;;;;;;;;;;4149901;34;20114;-67
2021/09/29 07:17:30;;;;;;;4.18;2.25;;;;;;;;;;4149836;34;20208;-62
2021/09/29 07:19:59;;;;;;;9.45;3.03;;;;;;;;;;4149772;34;20162;-65
2021/09/29 07:22:26;;;;;;;27.52;4.50;;;;;;;;;;4149827;34;20130;-66
2021/09/29 07:24:52;;;;;;;5.20;2.28;;;;;;;;;;4149842;34;20206;-65
2021/09/29 07:27:18;;;;;;;2.65;2.20;;;;;;;;;;4149724;34;20110;-67
2021/09/29 07:29:44;;;;;;;3.92;2.00;;;;;;;;;;4149219;34;20523;-66
2021/09/29 07:32:10;;;;;;;2.50;2.20;;;;;;;;;;4149803;34;20199;-61
2021/09/29 07:34:36;;;;;;;2.58;2.10;;;;;;;;;;4148220;34;20134;-62
2021/09/29 07:37:02;;;;;;;6.05;2.20;;;;;;;;;;4148041;34;20123;-61
2021/09/29 07:39:27;;;;;;;2.40;1.90;;;;;;;;;;4149731;34;20543;-66
2021/09/29 07:41:53;;;;;;;10.10;2.30;;;;;;;;;;4149519;34;20153;-66
2021/09/29 07:44:19;;;;;;;3.28;2.35;;;;;;;;;;4149777;34;20198;-61
2021/09/29 07:46:47;;;;;;;5.62;2.55;;;;;;;;;;4149440;34;20470;-66
2021/09/29 07:49:13;;;;;;;5.28;2.10;;;;;;;;;;4149851;34;20118;-67
2021/09/29 07:51:39;;;;;;;2.72;2.20;;;;;;;;;;4149370;34;20118;-62
2021/09/29 07:54:05;;;;;;;2.47;2.03;;;;;;;;;;4149431;34;20143;-62
2021/09/29 07:56:31;;;;;;;2.83;2.15;;;;;;;;;;4148003;34;20547;-62
2021/09/29 07:58:57;;;;;;;2.30;2.10;;;;;;;;;;4150325;34;20130;-67
2021/09/29 08:01:23;;;;;;;2.25;2.05;;;;;;;;;;4148059;34;20126;-66
2021/09/29 08:03:49;;;;;;;2.33;2.05;;;;;;;;;;4149481;34;20215;-67
2021/09/29 08:06:15;;;;;;;3.85;1.87;;;;;;;;;;4149755;34;20212;-67
2021/09/29 08:08:41;;;;;;;2.15;1.98;;;;;;;;;;4149470;34;20130;-62
2021/09/29 08:11:07;;;;;;;3.92;2.00;;;;;;;;;;4149278;34;20210;-66
2021/09/29 08:13:33;;;;;;;3.60;2.05;;;;;;;;;;4147722;34;20123;-67
2021/09/29 08:15:59;;;;;;;3.90;2.60;;;;;;;;;;4149327;34;20135;-67
2021/09/29 08:18:25;;;;;;;2.62;1.80;;;;;;;;;;4149418;34;20106;-61
2021/09/29 08:20:54;;;;;;;2.15;1.90;;;;;;;;;;4147888;34;20523;-66
2021/09/29 08:23:33;;;;;;;4.35;2.03;;;;;;;;;;4137260;34;20123;-61
2021/09/29 08:29:05;;;;;;;2.95;2.00;;;;;;;;;;4149110;34;20116;-62
2021/09/29 08:31:40;;;;;;;1.83;1.73;;;;;;;;;;4148205;34;20126;-66
2021/09/29 08:34:22;;;;;;;2.95;2.10;;;;;;;;;;4148042;34;20104;-62
2021/09/29 08:40:11;;;;;;;3.45;2.00;;;;;;;;;;4147596;34;20190;-61
2021/09/29 08:45:27;;;;;;;3.80;2.20;;;;;;;;;;4139454;34;20531;-67
2021/09/29 08:50:05;;;;;;;1.87;1.77;;;;;;;;;;4138893;34;20100;-63
2021/09/29 08:55:38;;;;;;;3.85;2.10;;;;;;;;;;4151014;34;20177;-68
2021/09/29 09:17:09;;;;;;;2.10;1.90;;;;;;;;;;4149655;34;20114;-62
2021/09/29 09:19:36;;;;;;;2.50;2.00;;;;;;;;;;4150803;34;20146;-66
2021/09/29 09:22:05;;;;;;;9.07;2.53;;;;;;;;;;4150815;34;20134;-62
2021/09/29 09:24:33;;;;;;;3.28;2.30;;;;;;;;;;4150862;34;20190;-67
2021/09/29 09:27:14;;;;;;;2.20;2.00;;;;;;;;;;4138351;34;20234;-68
2021/09/29 09:29:48;;;;;;;2.55;2.20;;;;;;;;;;4138823;34;20115;-67
2021/09/29 09:32:15;;;;;;;5.00;2.90;;;;;;;;;;4150685;34;20558;-61
2021/09/29 09:34:41;;;;;;;2.85;1.98;;;;;;;;;;4150647;34;20447;-67
2021/09/29 09:37:08;;;;;;;4.87;2.15;;;;;;;;;;4150653;34;20135;-67
2021/09/29 09:39:34;;;;;;;3.42;2.45;;;;;;;;;;4150677;34;20118;-67
2021/09/29 09:42:03;;;;;;;2.65;2.37;;;;;;;;;;4150739;34;20527;-66
2021/09/29 09:44:30;;;;;;;2.72;2.53;;;;;;;;;;4150699;34;20106;-63
2021/09/29 09:47:00;;;;;;;2.47;2.20;;;;;;;;;;4150678;34;20110;-63
2021/09/29 09:49:26;;;;;;;7.25;2.47;;;;;;;;;;4150612;34;20281;-68
2021/09/29 09:51:56;;;;;;;4.12;2.35;;;;;;;;;;4150449;34;20554;-64
2021/09/29 09:54:38;;;;;;;6.75;2.75;;;;;;;;;;4150469;34;20479;-63
2021/09/29 09:57:20;;;;;;;2.45;2.25;;;;;;;;;;4150590;34;20611;-63
2021/09/29 09:59:50;;;;;;;2.78;2.25;;;;;;;;;;4149062;34;20215;-62
2021/09/29 10:02:16;;;;;;;2.78;1.90;;;;;;;;;;4150715;34;20118;-62
2021/09/29 10:04:46;;;;;;;3.40;2.17;;;;;;;;;;4150427;34;20107;-63
2021/09/29 10:07:13;;;;;;;2.55;1.70;;;;;;;;;;4149281;34;20615;-67
2021/09/29 10:28:13;;;;;;;5.68;2.15;;;;;;;;;;4149495;34;20432;-71
2021/09/29 10:33:06;;;;;;;3.15;2.40;;;;;;;;;;4149153;34;20139;-63
2021/09/29 10:43:27;;;;;;;1.90;1.70;;;;;;;;;;4148996;34;20114;-69
2021/09/29 10:46:16;;;;;;;3.22;2.42;;;;;;;;;;4150412;34;20522;-62
2021/09/29 11:06:00;;;;;;;4.45;2.30;;;;;;;;;;4149218;34;20110;-62
2021/09/29 11:31:10;;;;;;;2.92;2.37;;;;;;;;;;4148883;34;20204;-61
2021/09/29 12:14:54;;;;;;;4.47;3.58;;;;;;;;;;4149242;34;20118;-67
2021/09/29 12:17:32;;;;;;;2.40;2.20;;;;;;;;;;4151292;34;20103;-70
2021/09/29 12:20:09;;;;;;;5.20;2.20;;;;;;;;;;4149886;34;20297;-71
2021/09/29 12:22:39;;;;;;;3.55;2.37;;;;;;;;;;4151382;34;20210;-65
2021/09/29 12:25:08;;;;;;;3.67;2.30;;;;;;;;;;4149844;34;20423;-69
2021/09/29 12:28:05;;;;;;;4.22;2.42;;;;;;;;;;4151417;34;20109;-70
2021/09/29 12:30:38;;;;;;;4.95;2.70;;;;;;;;;;4149732;34;20111;-70
2021/09/29 12:35:39;;;;;;;6.45;3.20;;;;;;;;;;4151297;34;20515;-65
2021/09/29 12:38:08;;;;;;;4.37;2.72;;;;;;;;;;4151347;34;20115;-65
2021/09/29 12:40:36;;;;;;;3.78;2.28;;;;;;;;;;4139234;34;20110;-65
2021/09/29 12:43:08;;;;;;;3.35;2.40;;;;;;;;;;4151290;34;20114;-67
2021/09/29 12:45:40;;;;;;;3.87;2.72;;;;;;;;;;4149861;34;20231;-68
2021/09/29 12:48:08;;;;;;;4.10;2.67;;;;;;;;;;4149894;34;20115;-61
2021/09/29 12:55:56;;;;;;;6.28;2.55;;;;;;;;;;4149609;34;20110;-62
2021/09/29 12:58:23;;;;;;;8.23;2.65;;;;;;;;;;4151751;34;20273;-70
2021/09/29 13:00:49;;;;;;;3.10;2.12;;;;;;;;;;4151429;34;20256;-71
2021/09/29 13:03:16;;;;;;;5.55;2.30;;;;;;;;;;4151926;34;20109;-71
2021/09/29 13:05:42;;;;;;;5.90;2.10;;;;;;;;;;4151108;34;20131;-71
2021/09/29 13:08:08;;;;;;;2.55;2.20;;;;;;;;;;4149546;34;20467;-70
2021/09/29 13:10:34;;;;;;;4.12;2.10;;;;;;;;;;4138094;34;20350;-71
2021/09/29 13:13:00;;;;;;;6.03;2.45;;;;;;;;;;4150973;34;20125;-71
2021/09/29 13:15:26;;;;;;;4.03;2.60;;;;;;;;;;4150741;34;20138;-62
2021/09/29 13:17:54;;;;;;;6.18;2.72;;;;;;;;;;4149531;34;20127;-62
2021/09/29 13:20:22;;;;;;;4.30;2.45;;;;;;;;;;4150495;34;20107;-62
2021/09/29 13:22:55;;;;;;;3.70;2.42;;;;;;;;;;4151042;34;20109;-62
2021/09/29 13:26:00;;;;;;;7.05;2.78;;;;;;;;;;4150633;34;20522;-64
2021/09/29 13:36:39;;;;;;;4.03;2.87;;;;;;;;;;4135817;34;20521;-63
2021/09/29 13:39:11;;;;;;;4.05;2.60;;;;;;;;;;4136699;34;20220;-63
2021/09/29 13:41:37;;;;;;;5.37;2.72;;;;;;;;;;4137497;34;20219;-62
2021/09/29 13:44:03;;;;;;;5.10;2.55;;;;;;;;;;4150372;34;20166;-62
2021/09/29 13:46:29;;;;;;;8.88;2.70;;;;;;;;;;4150592;34;20117;-63
2021/09/29 13:48:57;;;;;;;7.10;3.20;;;;;;;;;;4150308;34;20193;-62
2021/09/29 13:51:27;;;;;;;4.53;2.58;;;;;;;;;;4150439;34;20111;-63
2021/09/29 13:53:56;;;;;;;6.93;2.90;;;;;;;;;;4150374;34;20119;-62
2021/09/29 13:56:27;;;;;;;3.58;2.75;;;;;;;;;;4150348;34;20524;-61
2021/09/29 14:28:54;;;;;;;12.10;6.00;;;;;;;;;;4150113;34;20091;-62
2021/09/29 14:31:31;;;;;;;13.07;5.45;;;;;;;;;;4150081;34;20527;-63
2021/09/29 14:33:57;;;;;;;11.52;5.30;;;;;;;;;;4150250;34;20218;-63
2021/09/29 14:36:23;;;;;;;11.77;5.30;;;;;;;;;;4150267;34;20190;-62
2021/09/29 14:38:49;;;;;;;6.50;4.12;;;;;;;;;;4150195;34;20478;-63
2021/09/29 14:41:15;;;;;;;9.50;4.35;;;;;;;;;;4150184;34;20138;-61
2021/09/29 14:43:41;;;;;;;7.03;4.07;;;;;;;;;;4149763;34;20495;-62
2021/09/29 14:46:08;;;;;;;6.72;3.70;;;;;;;;;;4144470;34;20186;-62
2021/09/29 14:48:34;;;;;;;5.80;3.50;;;;;;;;;;4134942;34;20505;-62
2021/09/29 14:51:06;;;;;;;9.45;3.55;;;;;;;;;;4136585;34;20468;-64
2021/09/29 14:53:33;;;;;;;6.32;2.95;;;;;;;;;;4136683;34;20099;-64
2021/09/29 14:56:00;;;;;;;7.87;2.90;;;;;;;;;;4136631;34;20100;-61
2021/09/29 14:58:26;;;;;;;7.35;3.47;;;;;;;;;;4136550;34;20134;-63
2021/09/29 15:00:53;;;;;;;13.23;3.78;;;;;;;;;;4136424;34;20099;-63
2021/09/29 15:03:21;;;;;;;12.55;3.42;;;;;;;;;;4136381;34;20232;-61
2021/09/29 15:05:47;;;;;;;13.65;4.40;;;;;;;;;;4136376;34;20112;-62
2021/09/29 15:08:13;;;;;;;12.75;3.87;;;;;;;;;;4136156;34;20130;-64
2021/09/29 15:10:39;;;;;;;7.18;3.58;;;;;;;;;;4136343;34;20543;-62
2021/09/29 15:13:07;;;;;;;15.20;4.85;;;;;;;;;;4136438;34;20138;-62
2021/09/29 15:15:35;;;;;;;8.05;3.03;;;;;;;;;;4136364;34;20114;-62
2021/09/29 15:18:10;;;;;;;15.02;3.72;;;;;;;;;;4144066;34;20131;-71
2021/09/29 15:50:24;;;;;;;13.43;5.10;;;;;;;;;;4148716;34;20212;-69
2021/09/29 15:55:44;;;;;;;9.25;4.90;;;;;;;;;;4150669;34;20138;-70
2021/09/29 15:58:27;;;;;;;14.30;5.22;;;;;;;;;;4151495;34;20124;-70
2021/09/29 16:01:15;;;;;;;19.60;6.80;;;;;;;;;;4150288;34;20103;-64
2021/09/29 16:03:50;;;;;;;21.58;5.70;;;;;;;;;;4151098;34;20533;-68
2021/09/29 16:06:31;;;;;;;;;;;;;;;;;;4150464;34;20130;-65
2021/09/29 16:37:44;;;;;;;47.53;10.27;;;;;;;;;;4143607;34;20138;-71
2021/09/29 16:40:11;;;;;;;36.83;10.13;;;;;;;;;;4137743;34;20216;-70
2021/09/29 16:42:37;;;;;;;38.97;11.50;;;;;;;;;;4137725;34;20193;-70
2021/09/29 16:45:07;;;;;;;48.92;10.73;;;;;;;;;;4136448;34;20159;-66
2021/09/29 16:47:33;;;;;;;39.53;10.32;;;;;;;;;;4136704;34;20183;-72
2021/09/29 16:49:59;;;;;;;32.80;9.13;;;;;;;;;;4137810;34;20126;-71
2021/09/29 16:52:39;;;;;;;37.67;9.07;;;;;;;;;;4137589;34;20119;-71
2021/09/29 16:55:08;;;;;;;43.35;9.52;;;;;;;;;;4136602;34;20114;-73
2021/09/29 16:57:41;;;;;;;37.97;10.55;;;;;;;;;;4138059;34;20208;-66
2021/09/29 17:00:11;;;;;;;26.45;8.07;;;;;;;;;;4137673;34;20505;-65
2021/09/29 17:02:36;;;;;;;36.25;9.85;;;;;;;;;;4136943;34;20115;-69
2021/09/29 17:05:03;;;;;;;30.25;10.35;;;;;;;;;;4136293;34;20131;-70
2021/09/29 17:07:29;;;;;;;39.10;9.32;;;;;;;;;;4136238;34;20135;-68
2021/09/29 17:09:55;;;;;;;32.47;8.80;;;;;;;;;;4136708;34;20115;-76
2021/09/29 17:12:23;;;;;;;29.17;9.32;;;;;;;;;;4137354;34;20112;-67
2021/09/29 17:14:49;;;;;;;39.47;10.20;;;;;;;;;;4136343;34;20459;-67
2021/09/29 17:17:15;;;;;;;41.90;9.65;;;;;;;;;;4137518;34;20137;-68
2021/09/29 17:19:41;;;;;;;28.25;10.63;;;;;;;;;;4147263;34;20138;-68
2021/09/29 17:22:08;;;;;;;17.52;10.05;;;;;;;;;;4137584;34;20208;-70
2021/09/29 17:24:37;;;;;;;21.12;11.50;;;;;;;;;;4150828;34;20123;-70
2021/09/29 17:27:04;;;;;;;31.87;12.10;;;;;;;;;;4150833;34;20554;-70
2021/09/29 17:29:30;;;;;;;18.20;11.82;;;;;;;;;;4149222;34;20130;-70
2021/09/29 17:32:11;;;;;;;15.55;10.18;;;;;;;;;;4138785;34;20516;-68
2021/09/29 17:37:17;;;;;;;13.40;8.27;;;;;;;;;;4144214;34;20157;-69
2021/09/29 17:40:10;;;;;;;33.65;10.80;;;;;;;;;;4137512;34;20118;-70
2021/09/29 17:53:34;;;;;;;31.02;9.98;;;;;;;;;;4150621;34;20106;-69
2021/09/29 17:56:00;;;;;;;25.05;10.00;;;;;;;;;;4150966;34;20102;-70
2021/09/29 17:58:26;;;;;;;35.60;8.93;;;;;;;;;;4150874;34;20123;-69
2021/09/29 18:00:54;;;;;;;27.00;8.90;;;;;;;;;;4149594;34;20196;-67
2021/09/29 18:03:30;;;;;;;22.75;9.13;;;;;;;;;;4150741;34;20091;-67
2021/09/29 18:08:34;;;;;;;21.73;8.23;;;;;;;;;;4150806;34;20566;-68
2021/09/29 18:11:00;;;;;;;25.65;7.80;;;;;;;;;;4149210;34;20212;-66
2021/09/29 18:13:26;;;;;;;34.25;9.23;;;;;;;;;;4149062;34;20131;-67
2021/09/29 18:15:52;;;;;;;14.63;7.55;;;;;;;;;;4150471;34;20138;-67
2021/09/29 18:18:21;;;;;;;28.02;8.45;;;;;;;;;;4150452;34;20146;-66
2021/09/29 18:20:47;;;;;;;24.17;8.20;;;;;;;;;;4149935;34;20102;-67
2021/09/29 18:23:13;;;;;;;19.12;8.40;;;;;;;;;;4149175;34;20115;-66
2021/09/29 18:25:40;;;;;;;23.48;8.45;;;;;;;;;;4150513;34;20199;-66
2021/09/29 18:28:07;;;;;;;29.75;9.52;;;;;;;;;;4149079;34;20136;-67
2021/09/29 18:30:36;;;;;;;24.95;11.10;;;;;;;;;;4148781;34;20115;-66
2021/09/29 18:33:06;;;;;;;30.60;10.27;;;;;;;;;;4148959;34;20111;-67
2021/09/29 18:35:40;;;;;;;18.90;7.32;;;;;;;;;;4150566;34;20115;-75
2021/09/29 18:38:11;;;;;;;17.42;7.30;;;;;;;;;;4148986;34;20475;-73
2021/09/29 18:40:37;;;;;;;25.42;8.05;;;;;;;;;;4149065;34;20119;-74
2021/09/29 18:43:04;;;;;;;19.92;8.35;;;;;;;;;;4150465;34;20091;-75
2021/09/29 18:45:29;;;;;;;21.20;8.68;;;;;;;;;;4148772;34;20118;-75
2021/09/29 18:47:56;;;;;;;22.10;7.97;;;;;;;;;;4148794;34;20096;-75
2021/09/29 18:50:22;;;;;;;16.27;8.65;;;;;;;;;;4150209;34;20459;-75
2021/09/29 18:52:49;;;;;;;19.40;9.40;;;;;;;;;;4150104;34;20526;-74
2021/09/29 18:55:17;;;;;;;25.40;9.73;;;;;;;;;;4150151;34;20114;-74
2021/09/29 18:57:53;;;;;;;21.73;9.68;;;;;;;;;;4150071;34;20103;-67
2021/09/29 19:08:35;;;;;;;18.52;9.30;;;;;;;;;;4150148;34;20605;-66
2021/09/29 19:11:01;;;;;;;18.65;9.52;;;;;;;;;;4149964;34;20137;-66
2021/09/29 19:13:28;;;;;;;26.55;8.57;;;;;;;;;;4148684;34;20435;-66
2021/09/29 19:15:54;;;;;;;27.70;8.77;;;;;;;;;;4148725;34;20104;-71
2021/09/29 19:18:21;;;;;;;37.55;10.57;;;;;;;;;;4149822;34;20134;-66
2021/09/29 19:20:48;;;;;;;24.02;9.15;;;;;;;;;;4148695;34;20165;-74
2021/09/29 19:23:15;;;;;;;16.87;8.60;;;;;;;;;;4150241;34;20202;-75
2021/09/29 19:25:42;;;;;;;19.45;8.50;;;;;;;;;;4149387;34;20115;-64
2021/09/29 19:28:23;;;;;;;13.07;7.68;;;;;;;;;;4149816;34;20105;-66
2021/09/29 19:31:00;;;;;;;17.55;7.32;;;;;;;;;;4138843;34;20115;-66
2021/09/29 19:33:28;;;;;;;25.17;8.13;;;;;;;;;;4150052;34;20137;-66
2021/09/29 19:35:54;;;;;;;25.42;8.65;;;;;;;;;;4148292;34;20131;-66